sensor_id;sensor_type;location;lat;lon;timestamp;P1;durP1;ratioP1;P2;durP2;ratioP2
45893;SDS011;31603;51.148;16.932;2023-06-24T00:00:41;82.15;;;29.02;;
45893;SDS011;31603;51.148;16.932;2023-06-24T00:03:09;60.53;;;25.50;;
45893;SDS011;31603;51.148;16.932;2023-06-24T00:05:42;54.97;;;24.67;;
45893;SDS011;31603;51.148;16.932;2023-06-24T00:08:21;62.30;;;26.23;;
45893;SDS011;31603;51.148;16.932;2023-06-24T00:10:59;60.53;;;26.08;;
45893;SDS011;31603;51.148;16.932;2023-06-24T00:13:27;61.10;;;23.30;;
45893;SDS011;31603;51.148;16.932;2023-06-24T00:15:55;63.35;;;24.50;;
45893;SDS011;31603;51.148;16.932;2023-06-24T00:18:24;57.85;;;25.08;;
45893;SDS011;31603;51.148;16.932;2023-06-24T00:20:54;56.70;;;24.70;;
45893;SDS011;31603;51.148;16.932;2023-06-24T00:23:25;51.10;;;24.10;;
45893;SDS011;31603;51.148;16.932;2023-06-24T00:25:52;60.80;;;24.08;;
45893;SDS011;31603;51.148;16.932;2023-06-24T00:28:19;48.67;;;20.60;;
45893;SDS011;31603;51.148;16.932;2023-06-24T00:30:48;60.20;;;23.77;;
45893;SDS011;31603;51.148;16.932;2023-06-24T00:33:16;46.45;;;23.25;;
45893;SDS011;31603;51.148;16.932;2023-06-24T00:35:44;51.10;;;21.55;;
45893;SDS011;31603;51.148;16.932;2023-06-24T00:38:11;49.63;;;20.48;;
45893;SDS011;31603;51.148;16.932;2023-06-24T00:40:39;53.88;;;24.17;;
45893;SDS011;31603;51.148;16.932;2023-06-24T00:43:06;42.83;;;20.20;;
45893;SDS011;31603;51.148;16.932;2023-06-24T00:45:32;51.42;;;21.52;;
45893;SDS011;31603;51.148;16.932;2023-06-24T00:47:59;47.05;;;22.35;;
45893;SDS011;31603;51.148;16.932;2023-06-24T00:50:26;51.22;;;21.85;;
45893;SDS011;31603;51.148;16.932;2023-06-24T00:52:53;50.58;;;21.33;;
45893;SDS011;31603;51.148;16.932;2023-06-24T00:55:19;44.50;;;19.77;;
45893;SDS011;31603;51.148;16.932;2023-06-24T00:57:49;54.10;;;20.73;;
45893;SDS011;31603;51.148;16.932;2023-06-24T01:00:17;48.38;;;19.67;;
45893;SDS011;31603;51.148;16.932;2023-06-24T01:02:43;56.05;;;20.45;;
45893;SDS011;31603;51.148;16.932;2023-06-24T01:05:10;34.53;;;16.83;;
45893;SDS011;31603;51.148;16.932;2023-06-24T01:07:37;50.78;;;15.85;;
45893;SDS011;31603;51.148;16.932;2023-06-24T01:10:05;41.83;;;12.30;;
45893;SDS011;31603;51.148;16.932;2023-06-24T01:12:32;35.75;;;8.75;;
45893;SDS011;31603;51.148;16.932;2023-06-24T01:15:01;29.85;;;7.80;;
45893;SDS011;31603;51.148;16.932;2023-06-24T01:17:29;32.40;;;8.02;;
45893;SDS011;31603;51.148;16.932;2023-06-24T01:20:01;26.77;;;7.50;;
45893;SDS011;31603;51.148;16.932;2023-06-24T01:22:48;27.52;;;8.10;;
45893;SDS011;31603;51.148;16.932;2023-06-24T01:25:24;28.13;;;7.80;;
45893;SDS011;31603;51.148;16.932;2023-06-24T01:28:06;23.27;;;7.97;;
45893;SDS011;31603;51.148;16.932;2023-06-24T01:30:41;29.00;;;9.30;;
45893;SDS011;31603;51.148;16.932;2023-06-24T01:33:12;24.77;;;8.80;;
45893;SDS011;31603;51.148;16.932;2023-06-24T01:35:40;27.13;;;9.38;;
45893;SDS011;31603;51.148;16.932;2023-06-24T01:38:07;28.33;;;9.48;;
45893;SDS011;31603;51.148;16.932;2023-06-24T01:40:37;28.23;;;8.65;;
45893;SDS011;31603;51.148;16.932;2023-06-24T01:43:05;31.80;;;10.88;;
45893;SDS011;31603;51.148;16.932;2023-06-24T01:45:34;35.05;;;10.80;;
45893;SDS011;31603;51.148;16.932;2023-06-24T01:48:06;33.25;;;9.60;;
45893;SDS011;31603;51.148;16.932;2023-06-24T01:50:34;33.40;;;10.10;;
45893;SDS011;31603;51.148;16.932;2023-06-24T01:53:01;27.80;;;10.68;;
45893;SDS011;31603;51.148;16.932;2023-06-24T01:55:30;26.05;;;9.38;;
45893;SDS011;31603;51.148;16.932;2023-06-24T01:57:57;33.28;;;11.25;;
45893;SDS011;31603;51.148;16.932;2023-06-24T02:00:26;28.52;;;11.93;;
45893;SDS011;31603;51.148;16.932;2023-06-24T02:02:52;28.48;;;11.18;;
45893;SDS011;31603;51.148;16.932;2023-06-24T02:05:19;39.60;;;12.13;;
45893;SDS011;31603;51.148;16.932;2023-06-24T02:07:48;26.98;;;11.00;;
45893;SDS011;31603;51.148;16.932;2023-06-24T02:10:16;33.35;;;11.20;;
45893;SDS011;31603;51.148;16.932;2023-06-24T02:12:44;32.40;;;11.73;;
45893;SDS011;31603;51.148;16.932;2023-06-24T02:15:11;30.13;;;11.50;;
45893;SDS011;31603;51.148;16.932;2023-06-24T02:17:38;35.70;;;10.77;;
45893;SDS011;31603;51.148;16.932;2023-06-24T02:20:05;40.15;;;12.10;;
45893;SDS011;31603;51.148;16.932;2023-06-24T02:22:33;31.85;;;11.25;;
45893;SDS011;31603;51.148;16.932;2023-06-24T02:25:02;21.08;;;10.05;;
45893;SDS011;31603;51.148;16.932;2023-06-24T02:27:30;24.70;;;9.95;;
45893;SDS011;31603;51.148;16.932;2023-06-24T02:29:57;28.33;;;10.45;;
45893;SDS011;31603;51.148;16.932;2023-06-24T02:32:25;26.15;;;9.20;;
45893;SDS011;31603;51.148;16.932;2023-06-24T02:34:51;29.63;;;9.90;;
45893;SDS011;31603;51.148;16.932;2023-06-24T02:37:17;30.15;;;9.52;;
45893;SDS011;31603;51.148;16.932;2023-06-24T02:39:44;34.80;;;9.50;;
45893;SDS011;31603;51.148;16.932;2023-06-24T02:42:12;24.42;;;9.02;;
45893;SDS011;31603;51.148;16.932;2023-06-24T02:44:39;24.95;;;7.95;;
45893;SDS011;31603;51.148;16.932;2023-06-24T02:47:06;24.30;;;8.43;;
45893;SDS011;31603;51.148;16.932;2023-06-24T02:49:35;26.25;;;8.60;;
45893;SDS011;31603;51.148;16.932;2023-06-24T02:52:02;35.67;;;9.88;;
45893;SDS011;31603;51.148;16.932;2023-06-24T02:54:29;24.23;;;8.88;;
45893;SDS011;31603;51.148;16.932;2023-06-24T02:56:55;28.65;;;9.43;;
45893;SDS011;31603;51.148;16.932;2023-06-24T02:59:24;34.50;;;10.60;;
45893;SDS011;31603;51.148;16.932;2023-06-24T03:01:51;29.25;;;10.07;;
45893;SDS011;31603;51.148;16.932;2023-06-24T03:04:17;30.48;;;9.73;;
45893;SDS011;31603;51.148;16.932;2023-06-24T03:06:44;31.25;;;10.20;;
45893;SDS011;31603;51.148;16.932;2023-06-24T03:09:11;34.17;;;11.30;;
45893;SDS011;31603;51.148;16.932;2023-06-24T03:11:40;32.80;;;11.43;;
45893;SDS011;31603;51.148;16.932;2023-06-24T03:14:07;35.03;;;12.15;;
45893;SDS011;31603;51.148;16.932;2023-06-24T03:16:35;37.00;;;10.90;;
45893;SDS011;31603;51.148;16.932;2023-06-24T03:19:03;33.67;;;10.80;;
45893;SDS011;31603;51.148;16.932;2023-06-24T03:21:29;39.72;;;12.13;;
45893;SDS011;31603;51.148;16.932;2023-06-24T03:23:55;26.63;;;10.73;;
45893;SDS011;31603;51.148;16.932;2023-06-24T03:26:24;34.63;;;10.43;;
45893;SDS011;31603;51.148;16.932;2023-06-24T03:28:50;34.38;;;13.23;;
45893;SDS011;31603;51.148;16.932;2023-06-24T03:31:16;25.77;;;10.15;;
45893;SDS011;31603;51.148;16.932;2023-06-24T03:33:44;35.00;;;11.35;;
45893;SDS011;31603;51.148;16.932;2023-06-24T03:36:11;33.13;;;10.55;;
45893;SDS011;31603;51.148;16.932;2023-06-24T03:38:38;30.08;;;10.85;;
45893;SDS011;31603;51.148;16.932;2023-06-24T03:41:05;39.85;;;12.05;;
45893;SDS011;31603;51.148;16.932;2023-06-24T03:43:32;27.42;;;9.25;;
45893;SDS011;31603;51.148;16.932;2023-06-24T03:45:58;35.58;;;8.88;;
45893;SDS011;31603;51.148;16.932;2023-06-24T03:48:25;29.33;;;8.88;;
45893;SDS011;31603;51.148;16.932;2023-06-24T03:50:52;31.05;;;8.35;;
45893;SDS011;31603;51.148;16.932;2023-06-24T03:53:19;38.22;;;9.45;;
45893;SDS011;31603;51.148;16.932;2023-06-24T03:55:45;31.35;;;8.93;;
45893;SDS011;31603;51.148;16.932;2023-06-24T03:58:11;32.90;;;8.45;;
45893;SDS011;31603;51.148;16.932;2023-06-24T04:00:38;34.50;;;8.77;;
45893;SDS011;31603;51.148;16.932;2023-06-24T04:03:05;24.60;;;7.50;;
45893;SDS011;31603;51.148;16.932;2023-06-24T04:05:32;25.58;;;6.85;;
45893;SDS011;31603;51.148;16.932;2023-06-24T04:08:00;23.35;;;6.32;;
45893;SDS011;31603;51.148;16.932;2023-06-24T04:10:30;26.05;;;6.78;;
45893;SDS011;31603;51.148;16.932;2023-06-24T04:12:57;22.33;;;7.00;;
45893;SDS011;31603;51.148;16.932;2023-06-24T04:15:23;28.38;;;7.57;;
45893;SDS011;31603;51.148;16.932;2023-06-24T04:17:49;30.02;;;7.50;;
45893;SDS011;31603;51.148;16.932;2023-06-24T04:20:16;33.08;;;8.45;;
45893;SDS011;31603;51.148;16.932;2023-06-24T04:22:42;32.38;;;8.02;;
45893;SDS011;31603;51.148;16.932;2023-06-24T04:25:10;25.25;;;6.95;;
45893;SDS011;31603;51.148;16.932;2023-06-24T04:27:37;26.48;;;6.68;;
45893;SDS011;31603;51.148;16.932;2023-06-24T04:30:03;25.27;;;7.35;;
45893;SDS011;31603;51.148;16.932;2023-06-24T04:32:30;26.92;;;7.03;;
45893;SDS011;31603;51.148;16.932;2023-06-24T04:34:57;28.58;;;7.53;;
45893;SDS011;31603;51.148;16.932;2023-06-24T04:37:24;28.10;;;7.63;;
45893;SDS011;31603;51.148;16.932;2023-06-24T04:39:50;27.52;;;7.32;;
45893;SDS011;31603;51.148;16.932;2023-06-24T04:42:18;27.58;;;7.10;;
45893;SDS011;31603;51.148;16.932;2023-06-24T04:44:44;25.90;;;6.78;;
45893;SDS011;31603;51.148;16.932;2023-06-24T04:47:10;24.63;;;6.88;;
45893;SDS011;31603;51.148;16.932;2023-06-24T04:49:38;26.67;;;6.68;;
45893;SDS011;31603;51.148;16.932;2023-06-24T04:52:07;23.08;;;6.40;;
45893;SDS011;31603;51.148;16.932;2023-06-24T04:54:34;21.42;;;5.88;;
45893;SDS011;31603;51.148;16.932;2023-06-24T04:57:00;21.40;;;5.55;;
45893;SDS011;31603;51.148;16.932;2023-06-24T04:59:28;25.67;;;6.43;;
45893;SDS011;31603;51.148;16.932;2023-06-24T05:01:54;23.13;;;6.22;;
45893;SDS011;31603;51.148;16.932;2023-06-24T05:04:21;20.08;;;6.45;;
45893;SDS011;31603;51.148;16.932;2023-06-24T05:06:48;21.75;;;5.75;;
45893;SDS011;31603;51.148;16.932;2023-06-24T05:09:14;26.67;;;6.10;;
45893;SDS011;31603;51.148;16.932;2023-06-24T05:11:41;20.88;;;5.70;;
45893;SDS011;31603;51.148;16.932;2023-06-24T05:14:07;16.73;;;5.72;;
45893;SDS011;31603;51.148;16.932;2023-06-24T05:16:35;17.90;;;6.00;;
45893;SDS011;31603;51.148;16.932;2023-06-24T05:19:03;24.27;;;6.15;;
45893;SDS011;31603;51.148;16.932;2023-06-24T05:21:29;20.40;;;6.30;;
45893;SDS011;31603;51.148;16.932;2023-06-24T05:23:55;28.00;;;6.72;;
45893;SDS011;31603;51.148;16.932;2023-06-24T05:26:21;30.42;;;6.68;;
45893;SDS011;31603;51.148;16.932;2023-06-24T05:28:48;25.90;;;6.13;;
45893;SDS011;31603;51.148;16.932;2023-06-24T05:31:15;30.10;;;6.05;;
45893;SDS011;31603;51.148;16.932;2023-06-24T05:33:51;20.60;;;5.68;;
45893;SDS011;31603;51.148;16.932;2023-06-24T05:36:17;22.42;;;5.00;;
45893;SDS011;31603;51.148;16.932;2023-06-24T05:38:44;23.65;;;6.15;;
45893;SDS011;31603;51.148;16.932;2023-06-24T05:41:10;26.40;;;6.88;;
45893;SDS011;31603;51.148;16.932;2023-06-24T05:43:37;19.27;;;5.68;;
45893;SDS011;31603;51.148;16.932;2023-06-24T05:46:07;14.50;;;4.85;;
45893;SDS011;31603;51.148;16.932;2023-06-24T05:48:34;27.42;;;6.10;;
45893;SDS011;31603;51.148;16.932;2023-06-24T05:53:55;46.50;;;6.53;;
45893;SDS011;31603;51.148;16.932;2023-06-24T05:56:22;25.42;;;5.82;;
45893;SDS011;31603;51.148;16.932;2023-06-24T05:58:50;39.72;;;6.30;;
45893;SDS011;31603;51.148;16.932;2023-06-24T06:01:17;22.17;;;5.60;;
45893;SDS011;31603;51.148;16.932;2023-06-24T06:03:53;34.55;;;6.82;;
45893;SDS011;31603;51.148;16.932;2023-06-24T06:06:24;22.08;;;6.20;;
45893;SDS011;31603;51.148;16.932;2023-06-24T06:08:54;18.58;;;4.82;;
45893;SDS011;31603;51.148;16.932;2023-06-24T06:11:20;35.30;;;6.88;;
45893;SDS011;31603;51.148;16.932;2023-06-24T06:13:47;25.60;;;5.75;;
45893;SDS011;31603;51.148;16.932;2023-06-24T06:16:14;17.45;;;5.65;;
45893;SDS011;31603;51.148;16.932;2023-06-24T06:18:45;20.27;;;5.93;;
45893;SDS011;31603;51.148;16.932;2023-06-24T06:21:11;23.05;;;6.70;;
45893;SDS011;31603;51.148;16.932;2023-06-24T06:23:41;27.10;;;7.35;;
45893;SDS011;31603;51.148;16.932;2023-06-24T06:26:08;25.25;;;7.18;;
45893;SDS011;31603;51.148;16.932;2023-06-24T06:28:36;36.78;;;9.25;;
45893;SDS011;31603;51.148;16.932;2023-06-24T06:31:02;29.75;;;8.02;;
45893;SDS011;31603;51.148;16.932;2023-06-24T06:33:29;30.85;;;7.47;;
45893;SDS011;31603;51.148;16.932;2023-06-24T06:35:55;31.20;;;7.80;;
45893;SDS011;31603;51.148;16.932;2023-06-24T06:38:23;30.42;;;7.25;;
45893;SDS011;31603;51.148;16.932;2023-06-24T06:40:50;26.90;;;7.50;;
45893;SDS011;31603;51.148;16.932;2023-06-24T06:43:17;32.72;;;7.88;;
45893;SDS011;31603;51.148;16.932;2023-06-24T06:45:44;21.58;;;7.55;;
45893;SDS011;31603;51.148;16.932;2023-06-24T06:48:10;24.55;;;6.97;;
45893;SDS011;31603;51.148;16.932;2023-06-24T06:50:36;18.95;;;7.60;;
45893;SDS011;31603;51.148;16.932;2023-06-24T06:53:02;22.65;;;7.22;;
45893;SDS011;31603;51.148;16.932;2023-06-24T06:55:29;30.67;;;7.28;;
45893;SDS011;31603;51.148;16.932;2023-06-24T06:57:55;25.08;;;8.35;;
45893;SDS011;31603;51.148;16.932;2023-06-24T07:00:25;25.95;;;7.55;;
45893;SDS011;31603;51.148;16.932;2023-06-24T07:02:51;34.60;;;8.70;;
45893;SDS011;31603;51.148;16.932;2023-06-24T07:05:18;38.42;;;9.63;;
45893;SDS011;31603;51.148;16.932;2023-06-24T07:07:44;38.10;;;9.93;;
45893;SDS011;31603;51.148;16.932;2023-06-24T07:10:11;31.10;;;7.97;;
45893;SDS011;31603;51.148;16.932;2023-06-24T07:12:38;31.48;;;9.35;;
45893;SDS011;31603;51.148;16.932;2023-06-24T07:15:04;26.95;;;9.73;;
45893;SDS011;31603;51.148;16.932;2023-06-24T07:17:33;31.95;;;7.90;;
45893;SDS011;31603;51.148;16.932;2023-06-24T07:19:59;34.10;;;10.00;;
45893;SDS011;31603;51.148;16.932;2023-06-24T07:22:25;36.85;;;9.60;;
45893;SDS011;31603;51.148;16.932;2023-06-24T07:24:51;38.30;;;11.27;;
45893;SDS011;31603;51.148;16.932;2023-06-24T07:27:18;35.75;;;11.65;;
45893;SDS011;31603;51.148;16.932;2023-06-24T07:29:44;32.88;;;10.35;;
45893;SDS011;31603;51.148;16.932;2023-06-24T07:32:10;31.92;;;9.93;;
45893;SDS011;31603;51.148;16.932;2023-06-24T07:34:38;36.28;;;12.77;;
45893;SDS011;31603;51.148;16.932;2023-06-24T07:37:04;27.88;;;10.65;;
45893;SDS011;31603;51.148;16.932;2023-06-24T07:39:30;27.63;;;11.15;;
45893;SDS011;31603;51.148;16.932;2023-06-24T07:41:56;45.47;;;12.63;;
45893;SDS011;31603;51.148;16.932;2023-06-24T07:44:23;31.27;;;11.88;;
45893;SDS011;31603;51.148;16.932;2023-06-24T07:46:49;30.15;;;11.68;;
45893;SDS011;31603;51.148;16.932;2023-06-24T07:49:16;27.13;;;11.52;;
45893;SDS011;31603;51.148;16.932;2023-06-24T07:51:44;60.75;;;13.70;;
45893;SDS011;31603;51.148;16.932;2023-06-24T07:54:10;35.50;;;11.77;;
45893;SDS011;31603;51.148;16.932;2023-06-24T07:56:37;36.83;;;12.52;;
45893;SDS011;31603;51.148;16.932;2023-06-24T07:59:03;17.05;;;10.57;;
45893;SDS011;31603;51.148;16.932;2023-06-24T08:01:30;32.55;;;12.75;;
45893;SDS011;31603;51.148;16.932;2023-06-24T08:03:56;18.05;;;11.30;;
45893;SDS011;31603;51.148;16.932;2023-06-24T08:06:22;18.00;;;10.65;;
45893;SDS011;31603;51.148;16.932;2023-06-24T08:08:50;21.13;;;13.77;;
45893;SDS011;31603;51.148;16.932;2023-06-24T08:11:17;19.77;;;10.38;;
45893;SDS011;31603;51.148;16.932;2023-06-24T08:13:43;15.85;;;10.23;;
45893;SDS011;31603;51.148;16.932;2023-06-24T08:16:09;14.20;;;10.32;;
45893;SDS011;31603;51.148;16.932;2023-06-24T08:18:36;19.30;;;12.30;;
45893;SDS011;31603;51.148;16.932;2023-06-24T08:21:02;18.45;;;11.10;;
45893;SDS011;31603;51.148;16.932;2023-06-24T08:23:28;18.63;;;11.50;;
45893;SDS011;31603;51.148;16.932;2023-06-24T08:25:56;18.58;;;11.57;;
45893;SDS011;31603;51.148;16.932;2023-06-24T08:28:22;15.73;;;11.48;;
45893;SDS011;31603;51.148;16.932;2023-06-24T08:30:48;18.10;;;10.77;;
45893;SDS011;31603;51.148;16.932;2023-06-24T08:33:15;24.42;;;13.45;;
45893;SDS011;31603;51.148;16.932;2023-06-24T08:35:41;17.30;;;12.10;;
45893;SDS011;31603;51.148;16.932;2023-06-24T08:38:07;16.10;;;11.93;;
45893;SDS011;31603;51.148;16.932;2023-06-24T08:40:34;19.38;;;11.80;;
45893;SDS011;31603;51.148;16.932;2023-06-24T08:43:03;21.73;;;13.45;;
45893;SDS011;31603;51.148;16.932;2023-06-24T08:45:29;19.85;;;12.00;;
45893;SDS011;31603;51.148;16.932;2023-06-24T08:47:55;21.73;;;13.02;;
45893;SDS011;31603;51.148;16.932;2023-06-24T08:50:22;18.70;;;12.05;;
45893;SDS011;31603;51.148;16.932;2023-06-24T08:52:51;20.55;;;13.48;;
45893;SDS011;31603;51.148;16.932;2023-06-24T08:55:18;20.73;;;13.93;;
45893;SDS011;31603;51.148;16.932;2023-06-24T08:57:46;20.52;;;13.38;;
45893;SDS011;31603;51.148;16.932;2023-06-24T09:00:14;22.38;;;12.82;;
45893;SDS011;31603;51.148;16.932;2023-06-24T09:02:40;23.98;;;14.20;;
45893;SDS011;31603;51.148;16.932;2023-06-24T09:05:07;30.60;;;14.55;;
45893;SDS011;31603;51.148;16.932;2023-06-24T09:07:34;22.08;;;13.70;;
45893;SDS011;31603;51.148;16.932;2023-06-24T09:10:00;23.13;;;13.65;;
45893;SDS011;31603;51.148;16.932;2023-06-24T09:12:26;23.73;;;13.15;;
45893;SDS011;31603;51.148;16.932;2023-06-24T09:14:53;19.55;;;12.98;;
45893;SDS011;31603;51.148;16.932;2023-06-24T09:17:20;19.38;;;11.80;;
45893;SDS011;31603;51.148;16.932;2023-06-24T09:19:47;23.58;;;14.07;;
45893;SDS011;31603;51.148;16.932;2023-06-24T09:22:13;18.42;;;12.27;;
45893;SDS011;31603;51.148;16.932;2023-06-24T09:24:42;19.58;;;13.32;;
45893;SDS011;31603;51.148;16.932;2023-06-24T09:27:11;18.67;;;12.35;;
45893;SDS011;31603;51.148;16.932;2023-06-24T09:29:39;24.38;;;13.85;;
45893;SDS011;31603;51.148;16.932;2023-06-24T09:32:06;27.15;;;14.20;;
45893;SDS011;31603;51.148;16.932;2023-06-24T09:34:34;19.15;;;12.88;;
45893;SDS011;31603;51.148;16.932;2023-06-24T09:37:01;18.30;;;11.75;;
45893;SDS011;31603;51.148;16.932;2023-06-24T09:39:27;18.17;;;11.43;;
45893;SDS011;31603;51.148;16.932;2023-06-24T09:41:55;19.48;;;12.95;;
45893;SDS011;31603;51.148;16.932;2023-06-24T09:44:21;20.90;;;12.77;;
45893;SDS011;31603;51.148;16.932;2023-06-24T09:46:47;16.58;;;11.57;;
45893;SDS011;31603;51.148;16.932;2023-06-24T09:49:13;19.73;;;11.40;;
45893;SDS011;31603;51.148;16.932;2023-06-24T09:51:42;15.88;;;11.00;;
45893;SDS011;31603;51.148;16.932;2023-06-24T09:54:09;19.55;;;11.20;;
45893;SDS011;31603;51.148;16.932;2023-06-24T09:56:36;18.77;;;11.68;;
45893;SDS011;31603;51.148;16.932;2023-06-24T09:59:03;23.92;;;12.30;;
45893;SDS011;31603;51.148;16.932;2023-06-24T10:01:30;20.80;;;13.25;;
45893;SDS011;31603;51.148;16.932;2023-06-24T10:03:57;19.23;;;12.60;;
45893;SDS011;31603;51.148;16.932;2023-06-24T10:06:24;16.40;;;11.35;;
45893;SDS011;31603;51.148;16.932;2023-06-24T10:08:52;18.70;;;12.13;;
45893;SDS011;31603;51.148;16.932;2023-06-24T10:11:18;20.27;;;12.32;;
45893;SDS011;31603;51.148;16.932;2023-06-24T10:13:44;17.08;;;11.18;;
45893;SDS011;31603;51.148;16.932;2023-06-24T10:16:11;21.23;;;12.52;;
45893;SDS011;31603;51.148;16.932;2023-06-24T10:18:38;16.88;;;10.13;;
45893;SDS011;31603;51.148;16.932;2023-06-24T10:21:06;13.63;;;9.43;;
45893;SDS011;31603;51.148;16.932;2023-06-24T10:23:33;14.93;;;10.27;;
45893;SDS011;31603;51.148;16.932;2023-06-24T10:26:01;17.55;;;10.85;;
45893;SDS011;31603;51.148;16.932;2023-06-24T10:28:34;33.10;;;11.23;;
45893;SDS011;31603;51.148;16.932;2023-06-24T10:31:23;38.58;;;10.93;;
45893;SDS011;31603;51.148;16.932;2023-06-24T10:34:19;14.77;;;10.45;;
45893;SDS011;31603;51.148;16.932;2023-06-24T10:36:51;14.32;;;10.07;;
45893;SDS011;31603;51.148;16.932;2023-06-24T10:42:09;16.63;;;9.68;;
45893;SDS011;31603;51.148;16.932;2023-06-24T10:44:51;16.00;;;10.02;;
45893;SDS011;31603;51.148;16.932;2023-06-24T10:47:18;14.15;;;9.02;;
45893;SDS011;31603;51.148;16.932;2023-06-24T10:49:45;14.60;;;9.38;;
45893;SDS011;31603;51.148;16.932;2023-06-24T10:52:12;16.40;;;8.02;;
45893;SDS011;31603;51.148;16.932;2023-06-24T10:54:39;43.22;;;10.52;;
45893;SDS011;31603;51.148;16.932;2023-06-24T10:57:06;11.32;;;6.65;;
45893;SDS011;31603;51.148;16.932;2023-06-24T10:59:33;10.30;;;6.30;;
45893;SDS011;31603;51.148;16.932;2023-06-24T11:02:00;10.07;;;6.28;;
45893;SDS011;31603;51.148;16.932;2023-06-24T11:04:27;11.25;;;5.82;;
45893;SDS011;31603;51.148;16.932;2023-06-24T11:06:58;10.50;;;6.13;;
45893;SDS011;31603;51.148;16.932;2023-06-24T11:09:24;9.43;;;6.05;;
45893;SDS011;31603;51.148;16.932;2023-06-24T11:11:50;11.40;;;6.20;;
45893;SDS011;31603;51.148;16.932;2023-06-24T11:14:17;14.02;;;5.68;;
45893;SDS011;31603;51.148;16.932;2023-06-24T11:16:44;9.35;;;6.50;;
45893;SDS011;31603;51.148;16.932;2023-06-24T11:19:11;15.43;;;7.15;;
45893;SDS011;31603;51.148;16.932;2023-06-24T11:21:38;15.02;;;7.40;;
45893;SDS011;31603;51.148;16.932;2023-06-24T11:24:08;17.20;;;7.68;;
45893;SDS011;31603;51.148;16.932;2023-06-24T11:26:43;13.75;;;7.05;;
45893;SDS011;31603;51.148;16.932;2023-06-24T11:29:12;12.07;;;6.47;;
45893;SDS011;31603;51.148;16.932;2023-06-24T11:31:40;11.32;;;6.82;;
45893;SDS011;31603;51.148;16.932;2023-06-24T11:34:08;10.07;;;6.75;;
45893;SDS011;31603;51.148;16.932;2023-06-24T11:36:34;11.63;;;6.75;;
45893;SDS011;31603;51.148;16.932;2023-06-24T11:39:02;11.20;;;6.85;;
45893;SDS011;31603;51.148;16.932;2023-06-24T11:41:29;12.52;;;6.60;;
45893;SDS011;31603;51.148;16.932;2023-06-24T11:43:56;13.18;;;6.72;;
45893;SDS011;31603;51.148;16.932;2023-06-24T11:46:23;14.90;;;6.50;;
45893;SDS011;31603;51.148;16.932;2023-06-24T11:48:50;10.77;;;6.60;;
45893;SDS011;31603;51.148;16.932;2023-06-24T11:51:16;11.23;;;6.97;;
45893;SDS011;31603;51.148;16.932;2023-06-24T11:53:43;12.95;;;7.20;;
45893;SDS011;31603;51.148;16.932;2023-06-24T11:56:12;12.93;;;6.63;;
45893;SDS011;31603;51.148;16.932;2023-06-24T11:58:38;10.60;;;5.57;;
45893;SDS011;31603;51.148;16.932;2023-06-24T12:01:06;10.50;;;6.75;;
45893;SDS011;31603;51.148;16.932;2023-06-24T12:03:32;6.88;;;5.50;;
45893;SDS011;31603;51.148;16.932;2023-06-24T12:06:00;15.48;;;6.65;;
45893;SDS011;31603;51.148;16.932;2023-06-24T12:08:26;7.35;;;5.63;;
45893;SDS011;31603;51.148;16.932;2023-06-24T12:10:52;11.30;;;6.45;;
45893;SDS011;31603;51.148;16.932;2023-06-24T12:13:20;12.45;;;6.68;;
45893;SDS011;31603;51.148;16.932;2023-06-24T12:15:46;11.60;;;6.63;;
45893;SDS011;31603;51.148;16.932;2023-06-24T12:18:12;9.82;;;5.72;;
45893;SDS011;31603;51.148;16.932;2023-06-24T12:20:39;10.48;;;5.53;;
45893;SDS011;31603;51.148;16.932;2023-06-24T12:23:05;25.38;;;6.40;;
45893;SDS011;31603;51.148;16.932;2023-06-24T12:25:31;50.20;;;8.02;;
45893;SDS011;31603;51.148;16.932;2023-06-24T12:27:58;42.28;;;8.55;;
45893;SDS011;31603;51.148;16.932;2023-06-24T12:30:26;53.83;;;11.35;;
45893;SDS011;31603;51.148;16.932;2023-06-24T12:32:53;27.60;;;6.10;;
45893;SDS011;31603;51.148;16.932;2023-06-24T12:35:19;34.20;;;7.07;;
45893;SDS011;31603;51.148;16.932;2023-06-24T12:37:45;36.58;;;7.90;;
45893;SDS011;31603;51.148;16.932;2023-06-24T12:40:12;42.33;;;8.90;;
45893;SDS011;31603;51.148;16.932;2023-06-24T12:42:39;47.10;;;8.20;;
45893;SDS011;31603;51.148;16.932;2023-06-24T12:45:05;42.03;;;7.13;;
45893;SDS011;31603;51.148;16.932;2023-06-24T12:47:33;43.72;;;7.43;;
45893;SDS011;31603;51.148;16.932;2023-06-24T12:49:59;28.85;;;8.02;;
45893;SDS011;31603;51.148;16.932;2023-06-24T12:52:26;31.13;;;8.48;;
45893;SDS011;31603;51.148;16.932;2023-06-24T12:54:52;40.70;;;8.05;;
45893;SDS011;31603;51.148;16.932;2023-06-24T12:57:18;25.85;;;6.60;;
45893;SDS011;31603;51.148;16.932;2023-06-24T12:59:44;33.53;;;7.78;;
45893;SDS011;31603;51.148;16.932;2023-06-24T13:02:11;27.75;;;6.45;;
45893;SDS011;31603;51.148;16.932;2023-06-24T13:04:38;7.15;;;4.85;;
45893;SDS011;31603;51.148;16.932;2023-06-24T13:07:05;8.65;;;5.20;;
45893;SDS011;31603;51.148;16.932;2023-06-24T13:09:32;8.38;;;5.15;;
45893;SDS011;31603;51.148;16.932;2023-06-24T13:11:58;9.57;;;5.72;;
45893;SDS011;31603;51.148;16.932;2023-06-24T13:14:24;10.98;;;5.75;;
45893;SDS011;31603;51.148;16.932;2023-06-24T13:16:53;21.35;;;5.70;;
45893;SDS011;31603;51.148;16.932;2023-06-24T13:19:19;24.88;;;5.75;;
45893;SDS011;31603;51.148;16.932;2023-06-24T13:21:47;29.55;;;6.45;;
45893;SDS011;31603;51.148;16.932;2023-06-24T13:24:13;48.38;;;7.80;;
45893;SDS011;31603;51.148;16.932;2023-06-24T13:26:39;23.05;;;5.95;;
45893;SDS011;31603;51.148;16.932;2023-06-24T13:29:06;28.80;;;6.50;;
45893;SDS011;31603;51.148;16.932;2023-06-24T13:31:33;21.73;;;5.72;;
45893;SDS011;31603;51.148;16.932;2023-06-24T13:33:59;24.63;;;5.82;;
45893;SDS011;31603;51.148;16.932;2023-06-24T13:36:29;28.83;;;7.10;;
45893;SDS011;31603;51.148;16.932;2023-06-24T13:38:57;16.85;;;5.47;;
45893;SDS011;31603;51.148;16.932;2023-06-24T13:41:23;13.05;;;4.80;;
45893;SDS011;31603;51.148;16.932;2023-06-24T13:43:51;11.13;;;5.05;;
45893;SDS011;31603;51.148;16.932;2023-06-24T13:46:17;11.05;;;5.25;;
45893;SDS011;31603;51.148;16.932;2023-06-24T13:48:43;20.10;;;5.43;;
45893;SDS011;31603;51.148;16.932;2023-06-24T13:51:10;25.98;;;6.65;;
45893;SDS011;31603;51.148;16.932;2023-06-24T13:53:36;21.98;;;5.80;;
45893;SDS011;31603;51.148;16.932;2023-06-24T13:56:03;26.85;;;7.63;;
45893;SDS011;31603;51.148;16.932;2023-06-24T13:58:30;26.38;;;5.85;;
45893;SDS011;31603;51.148;16.932;2023-06-24T14:00:56;19.77;;;6.10;;
45893;SDS011;31603;51.148;16.932;2023-06-24T14:03:23;24.00;;;5.25;;
45893;SDS011;31603;51.148;16.932;2023-06-24T14:05:49;25.08;;;5.63;;
45893;SDS011;31603;51.148;16.932;2023-06-24T14:08:15;18.05;;;5.43;;
45893;SDS011;31603;51.148;16.932;2023-06-24T14:10:42;20.23;;;5.40;;
45893;SDS011;31603;51.148;16.932;2023-06-24T14:13:09;13.10;;;4.57;;
45893;SDS011;31603;51.148;16.932;2023-06-24T14:15:36;19.58;;;5.95;;
45893;SDS011;31603;51.148;16.932;2023-06-24T14:18:02;15.65;;;5.05;;
45893;SDS011;31603;51.148;16.932;2023-06-24T14:20:28;18.27;;;5.32;;
45893;SDS011;31603;51.148;16.932;2023-06-24T14:22:55;39.83;;;7.03;;